Time;durP1;ratioP1;P1;durP2;ratioP2;P2;SDS_P1;SDS_P2;PMS_P1;PMS_P2;Temp;Humidity;BMP_temperature;BMP_pressure;BME280_temperature;BME280_humidity;BME280_pressure;Samples;Min_cycle;Max_cycle;Signal;HPM_P1;HPM_P2
2023/09/12 00:01:17;;;;;;;11.88;9.70;;;20.30;99.90;;;;;;4942038;29;20030;-84
2023/09/12 00:03:42;;;;;;;13.55;10.65;;;20.30;99.90;;;;;;4944979;29;20138;-82
2023/09/12 00:06:08;;;;;;;12.48;10.52;;;20.30;99.90;;;;;;4938752;29;20049;-84
2023/09/12 00:08:34;;;;;;;12.48;10.25;;;20.20;99.90;;;;;;4943214;29;20114;-82
2023/09/12 00:11:06;;;;;;;12.73;9.40;;;20.20;99.90;;;;;;4927085;28;20047;-82
2023/09/12 00:13:32;;;;;;;10.52;9.35;;;20.10;99.90;;;;;;4933884;28;20027;-82
2023/09/12 00:15:58;;;;;;;10.75;9.40;;;20.20;99.90;;;;;;4930714;29;20032;-82
2023/09/12 00:18:25;;;;;;;12.25;10.18;;;20.20;99.90;;;;;;4926540;29;20020;-82
2023/09/12 00:20:51;;;;;;;13.65;11.63;;;20.10;99.90;;;;;;4945746;29;20122;-84
2023/09/12 00:23:17;;;;;;;12.15;10.65;;;20.10;99.90;;;;;;4939059;29;20039;-82
2023/09/12 00:25:43;;;;;;;12.38;9.43;;;20.10;99.90;;;;;;4926386;29;20550;-82
2023/09/12 00:28:09;;;;;;;12.63;11.23;;;20.10;99.90;;;;;;4924022;29;20118;-83
2023/09/12 00:30:34;;;;;;;12.38;10.73;;;20.10;99.90;;;;;;4925832;28;20090;-81
2023/09/12 00:33:00;;;;;;;12.32;10.45;;;20.10;99.90;;;;;;4927265;29;20042;-82
2023/09/12 00:35:26;;;;;;;12.00;10.73;;;20.10;99.90;;;;;;4927431;28;20483;-82
2023/09/12 00:37:51;;;;;;;10.02;9.02;;;20.10;99.90;;;;;;4936102;29;20114;-82
2023/09/12 00:40:17;;;;;;;11.30;9.73;;;20.10;99.90;;;;;;4944529;29;20027;-81
2023/09/12 00:42:43;;;;;;;10.77;8.38;;;20.10;99.90;;;;;;4928164;29;20392;-82
2023/09/12 00:45:09;;;;;;;9.35;7.15;;;20.10;99.90;;;;;;4927835;29;20024;-83
2023/09/12 00:47:36;;;;;;;10.95;9.75;;;20.10;99.90;;;;;;4929057;29;20118;-83
2023/09/12 00:50:04;;;;;;;15.23;10.18;;;20.10;99.90;;;;;;4930621;29;20027;-83
2023/09/12 00:52:33;;;;;;;14.07;10.18;;;20.10;99.90;;;;;;4945240;29;20039;-84
2023/09/12 00:54:58;;;;;;;11.15;10.00;;;20.00;99.90;;;;;;4930943;29;20035;-82
2023/09/12 00:57:26;;;;;;;11.10;9.82;;;20.00;99.90;;;;;;4939952;29;20039;-83
2023/09/12 00:59:53;;;;;;;9.45;8.43;;;20.00;99.90;;;;;;4943729;29;20031;-81
2023/09/12 01:02:20;;;;;;;11.35;8.57;;;20.00;99.90;;;;;;4944470;29;20023;-83
2023/09/12 01:04:47;;;;;;;12.27;8.35;;;20.00;99.90;;;;;;4943348;29;20030;-84
2023/09/12 01:07:13;;;;;;;10.05;8.90;;;19.90;99.90;;;;;;4918418;28;20023;-83
2023/09/12 01:09:40;;;;;;;10.43;8.57;;;19.80;99.90;;;;;;4925096;29;20052;-83
2023/09/12 01:12:06;;;;;;;10.93;9.50;;;19.80;99.90;;;;;;4929976;29;20046;-85
2023/09/12 01:14:32;;;;;;;12.10;8.80;;;19.80;99.90;;;;;;4944054;29;20031;-85
2023/09/12 01:16:58;;;;;;;12.95;10.15;;;19.70;99.90;;;;;;4910067;28;20031;-84
2023/09/12 01:19:24;;;;;;;13.48;11.52;;;19.60;99.90;;;;;;4934685;28;20027;-84
2023/09/12 01:22:19;;;;;;;11.20;10.05;;;19.50;99.90;;;;;;4937463;28;20093;-83
2023/09/12 01:25:15;;;;;;;11.23;9.65;;;19.50;99.90;;;;;;4926680;29;20543;-83
2023/09/12 01:27:50;;;;;;;10.88;8.13;;;19.50;99.90;;;;;;4926165;28;20034;-83
2023/09/12 01:30:20;;;;;;;10.65;9.43;;;19.50;99.90;;;;;;4925523;29;20024;-84
2023/09/12 01:32:46;;;;;;;11.50;9.50;;;19.40;99.90;;;;;;4942320;29;20062;-84
2023/09/12 01:35:13;;;;;;;11.55;9.25;;;19.40;99.90;;;;;;4927825;29;20032;-83
2023/09/12 01:37:39;;;;;;;12.48;9.55;;;19.30;99.90;;;;;;4942834;29;20024;-84
2023/09/12 01:40:06;;;;;;;9.85;8.60;;;19.40;99.90;;;;;;4928209;29;20031;-84
2023/09/12 01:42:43;;;;;;;14.43;9.65;;;19.30;99.90;;;;;;4925445;28;20058;-84
2023/09/12 01:45:17;;;;;;;11.57;9.27;;;19.20;99.90;;;;;;4925661;29;20393;-85
2023/09/12 01:47:45;;;;;;;12.00;9.40;;;19.20;99.90;;;;;;4925980;29;20023;-82
2023/09/12 01:50:13;;;;;;;10.55;9.15;;;19.20;99.90;;;;;;4941629;29;20023;-83
2023/09/12 01:52:40;;;;;;;8.70;7.80;;;19.10;99.90;;;;;;4911852;29;20381;-83
2023/09/12 01:55:09;;;;;;;9.05;7.50;;;19.20;99.90;;;;;;4942847;29;20031;-83
2023/09/12 01:57:36;;;;;;;11.10;8.37;;;19.10;99.90;;;;;;4939481;29;20031;-82
2023/09/12 02:00:03;;;;;;;9.13;8.10;;;19.10;99.90;;;;;;4926363;29;20027;-85
2023/09/12 02:02:31;;;;;;;11.43;8.35;;;19.20;99.90;;;;;;4940402;29;20035;-86
2023/09/12 02:05:15;;;;;;;11.35;9.30;;;19.10;99.90;;;;;;4941784;28;20027;-84
2023/09/12 02:07:42;;;;;;;8.88;7.65;;;19.20;99.90;;;;;;4924106;28;20793;-83
2023/09/12 02:10:09;;;;;;;9.50;8.13;;;19.30;99.90;;;;;;4943600;29;20035;-83
2023/09/12 02:12:35;;;;;;;10.70;8.98;;;19.20;99.90;;;;;;4922821;29;20072;-82
2023/09/12 02:15:01;;;;;;;12.45;8.82;;;19.20;99.90;;;;;;4941061;29;20027;-85
2023/09/12 02:17:27;;;;;;;9.55;8.63;;;19.20;99.90;;;;;;4940940;29;20129;-85
2023/09/12 02:19:52;;;;;;;11.50;8.68;;;19.20;99.90;;;;;;4925811;28;21919;-83
2023/09/12 02:22:18;;;;;;;10.63;8.90;;;19.30;99.90;;;;;;4942559;29;20508;-83
2023/09/12 02:24:45;;;;;;;9.88;7.88;;;19.30;99.90;;;;;;4942349;28;20155;-83
2023/09/12 02:27:11;;;;;;;9.82;8.35;;;19.40;99.90;;;;;;4941144;29;20106;-83
2023/09/12 02:29:41;;;;;;;10.23;9.15;;;19.30;99.90;;;;;;4942681;28;20352;-83
2023/09/12 02:32:07;;;;;;;10.35;8.45;;;19.30;99.90;;;;;;4941139;29;20035;-84
2023/09/12 02:34:33;;;;;;;12.43;10.82;;;19.30;99.90;;;;;;4924806;29;20541;-83
2023/09/12 02:36:59;;;;;;;14.35;11.02;;;19.20;99.90;;;;;;4940726;28;20040;-83
2023/09/12 02:39:24;;;;;;;15.13;11.65;;;19.20;99.90;;;;;;4920833;29;20076;-83
2023/09/12 02:41:50;;;;;;;12.77;11.43;;;19.20;99.90;;;;;;4936675;29;20034;-83
2023/09/12 02:44:16;;;;;;;13.82;10.80;;;19.20;99.90;;;;;;4926114;29;20038;-85
2023/09/12 02:46:42;;;;;;;13.07;11.32;;;19.10;99.90;;;;;;4925352;29;20028;-83
2023/09/12 02:49:08;;;;;;;14.05;10.88;;;19.10;99.90;;;;;;4924567;29;20028;-84
2023/09/12 02:51:33;;;;;;;11.27;10.07;;;19.10;99.90;;;;;;4937549;29;20035;-83
2023/09/12 02:53:59;;;;;;;10.20;9.07;;;19.00;99.90;;;;;;4939915;29;20082;-83
2023/09/12 02:56:25;;;;;;;13.07;9.93;;;19.10;99.90;;;;;;4924351;29;20510;-82
2023/09/12 02:58:50;;;;;;;12.35;9.98;;;19.10;99.90;;;;;;4932333;29;20509;-83
2023/09/12 03:01:21;;;;;;;10.52;9.43;;;19.00;99.90;;;;;;4928970;29;20027;-83
2023/09/12 03:03:48;;;;;;;11.05;9.60;;;19.00;99.90;;;;;;4913718;29;20031;-83
2023/09/12 03:06:15;;;;;;;11.48;9.25;;;19.00;99.90;;;;;;4931895;29;20027;-83
2023/09/12 03:08:41;;;;;;;11.30;9.40;;;19.00;99.90;;;;;;4928821;29;20081;-84
2023/09/12 03:11:07;;;;;;;8.95;7.80;;;19.00;99.90;;;;;;4943874;29;20115;-83
2023/09/12 03:13:34;;;;;;;9.57;8.57;;;18.90;99.90;;;;;;4928001;29;20028;-83
2023/09/12 03:16:00;;;;;;;11.27;9.13;;;18.90;99.90;;;;;;4927711;29;20030;-84
2023/09/12 03:18:26;;;;;;;9.65;8.55;;;18.90;99.90;;;;;;4942657;29;20507;-83
2023/09/12 03:20:53;;;;;;;11.68;9.43;;;18.90;99.90;;;;;;4945154;29;20030;-83
2023/09/12 03:23:22;;;;;;;8.63;7.65;;;18.80;99.90;;;;;;4927577;29;20031;-83
2023/09/12 03:25:48;;;;;;;9.93;7.90;;;18.80;99.90;;;;;;4942256;29;20023;-83
2023/09/12 03:28:14;;;;;;;9.30;7.50;;;18.70;99.90;;;;;;4943540;28;20027;-86
2023/09/12 03:30:40;;;;;;;8.52;7.43;;;18.60;99.90;;;;;;4930688;29;20038;-84
2023/09/12 03:33:07;;;;;;;9.57;7.97;;;18.60;99.90;;;;;;4927553;29;20146;-83
2023/09/12 03:35:34;;;;;;;10.48;7.50;;;18.60;99.90;;;;;;4942263;29;20028;-84
2023/09/12 03:38:01;;;;;;;10.25;8.00;;;18.60;99.90;;;;;;4946521;29;20058;-83
2023/09/12 03:40:30;;;;;;;9.85;8.85;;;18.60;99.90;;;;;;4944102;28;20380;-83
2023/09/12 03:42:56;;;;;;;8.82;6.72;;;18.50;99.90;;;;;;4926095;29;20063;-84
2023/09/12 03:45:23;;;;;;;9.80;7.80;;;18.50;99.90;;;;;;4912535;29;20028;-83
2023/09/12 03:47:49;;;;;;;8.40;6.82;;;18.50;99.90;;;;;;4944004;29;20032;-83
2023/09/12 03:50:16;;;;;;;11.75;8.35;;;18.40;99.90;;;;;;4921512;29;20371;-82
2023/09/12 03:52:42;;;;;;;11.07;8.15;;;18.40;99.90;;;;;;4942630;29;20038;-82
2023/09/12 03:55:08;;;;;;;9.38;8.00;;;18.40;99.90;;;;;;4943620;29;20101;-83
2023/09/12 03:57:34;;;;;;;10.15;9.13;;;18.40;99.90;;;;;;4911344;29;20128;-83
2023/09/12 03:59:59;;;;;;;10.57;9.02;;;18.40;99.90;;;;;;4944035;29;20108;-83
2023/09/12 04:02:25;;;;;;;14.52;8.73;;;18.40;99.90;;;;;;4943127;29;20027;-83
2023/09/12 04:04:51;;;;;;;10.70;8.98;;;18.40;99.90;;;;;;4928887;28;20114;-83
2023/09/12 04:07:18;;;;;;;9.57;7.95;;;18.50;99.90;;;;;;4930638;29;20020;-83
2023/09/12 04:09:43;;;;;;;9.38;7.70;;;18.50;99.90;;;;;;4942996;28;20502;-83
2023/09/12 04:12:09;;;;;;;7.88;6.85;;;18.40;99.90;;;;;;4946661;29;20027;-84
2023/09/12 04:14:35;;;;;;;8.75;7.85;;;18.30;99.90;;;;;;4918370;28;20105;-82
2023/09/12 04:17:02;;;;;;;11.48;9.27;;;18.20;99.90;;;;;;4930168;29;21924;-84
2023/09/12 04:19:27;;;;;;;12.50;10.32;;;18.30;99.90;;;;;;4924622;29;20487;-83
2023/09/12 04:21:53;;;;;;;12.77;9.98;;;18.30;99.90;;;;;;4942423;29;20118;-83
2023/09/12 04:24:19;;;;;;;11.85;8.70;;;18.30;99.90;;;;;;4928354;29;20032;-83
2023/09/12 04:26:46;;;;;;;11.57;9.65;;;18.20;99.90;;;;;;4944298;28;20086;-85
2023/09/12 04:29:12;;;;;;;11.48;9.25;;;18.20;99.90;;;;;;4924592;29;20063;-87
2023/09/12 04:31:37;;;;;;;13.40;9.95;;;18.20;99.90;;;;;;4929375;29;20043;-84
2023/09/12 04:34:03;;;;;;;11.98;10.70;;;18.10;99.90;;;;;;4926744;29;20043;-82
2023/09/12 04:36:29;;;;;;;15.70;11.65;;;18.10;99.90;;;;;;4937420;29;20043;-86
2023/09/12 04:38:55;;;;;;;15.45;12.35;;;18.20;99.90;;;;;;4943056;29;20042;-84
2023/09/12 04:41:20;;;;;;;16.35;11.85;;;18.10;99.90;;;;;;4939814;28;20031;-82
2023/09/12 04:43:46;;;;;;;12.38;10.88;;;18.10;99.90;;;;;;4943688;28;20079;-83
2023/09/12 04:46:12;;;;;;;16.10;10.85;;;18.00;99.90;;;;;;4943229;29;20575;-83
2023/09/12 04:48:38;;;;;;;16.42;12.52;;;18.00;99.90;;;;;;4926747;29;20473;-83
2023/09/12 04:51:04;;;;;;;14.95;11.93;;;18.00;99.90;;;;;;4936010;29;20032;-82
2023/09/12 04:53:34;;;;;;;15.82;11.18;;;18.10;99.90;;;;;;4924759;29;20495;-83
2023/09/12 04:56:01;;;;;;;21.55;15.00;;;18.10;99.90;;;;;;4941920;29;20043;-86
2023/09/12 04:58:28;;;;;;;17.38;13.65;;;18.30;99.90;;;;;;4934613;29;20030;-82
2023/09/12 05:00:55;;;;;;;18.95;13.15;;;18.30;99.90;;;;;;4943876;29;20454;-85
2023/09/12 05:03:21;;;;;;;18.90;14.20;;;18.30;99.90;;;;;;4925004;28;20391;-82
2023/09/12 05:05:48;;;;;;;18.70;14.38;;;18.30;99.90;;;;;;4941764;29;20545;-83
2023/09/12 05:08:14;;;;;;;21.60;15.40;;;18.30;99.90;;;;;;4941109;29;20110;-87
2023/09/12 05:10:40;;;;;;;21.33;15.48;;;18.30;99.90;;;;;;4919508;28;20167;-84
2023/09/12 05:13:06;;;;;;;21.50;15.75;;;18.30;99.90;;;;;;4928806;28;20039;-83
2023/09/12 05:15:31;;;;;;;24.75;18.00;;;18.40;99.90;;;;;;4933800;28;20033;-83
2023/09/12 05:17:57;;;;;;;22.40;16.58;;;18.50;99.90;;;;;;5006751;28;20077;-84
2023/09/12 05:20:23;;;;;;;26.90;19.27;;;18.50;99.90;;;;;;4907043;28;20483;-83
2023/09/12 05:22:49;;;;;;;23.77;17.48;;;18.50;99.90;;;;;;4923783;29;20516;-84
2023/09/12 05:25:14;;;;;;;28.90;20.40;;;18.50;99.90;;;;;;4923048;28;20050;-85
2023/09/12 05:27:40;;;;;;;30.05;20.50;;;18.60;99.90;;;;;;4908344;28;20062;-83
2023/09/12 05:30:06;;;;;;;24.52;17.80;;;18.60;99.90;;;;;;4909846;28;20515;-83
2023/09/12 05:32:32;;;;;;;34.03;24.63;;;18.60;99.90;;;;;;4924973;29;20085;-82
2023/09/12 05:34:58;;;;;;;34.85;23.67;;;18.70;99.90;;;;;;4942586;29;20027;-83
2023/09/12 05:37:24;;;;;;;33.50;23.92;;;18.70;99.90;;;;;;4943263;29;20554;-83
2023/09/12 05:39:49;;;;;;;33.72;23.73;;;18.70;99.90;;;;;;4941579;29;20453;-83
2023/09/12 05:42:20;;;;;;;39.38;28.38;;;18.70;99.90;;;;;;4941692;29;20039;-82
2023/09/12 05:44:53;;;;;;;42.30;30.40;;;18.70;99.90;;;;;;4907785;29;20042;-83
2023/09/12 05:47:20;;;;;;;43.30;29.85;;;18.70;99.90;;;;;;4921169;28;20027;-81
2023/09/12 05:49:46;;;;;;;41.72;28.98;;;18.70;99.90;;;;;;4943921;28;20023;-82
2023/09/12 05:52:11;;;;;;;39.72;27.30;;;18.70;99.90;;;;;;4927785;29;20058;-82
2023/09/12 05:54:39;;;;;;;43.22;30.33;;;18.70;99.90;;;;;;4926806;29;20027;-83
2023/09/12 05:57:05;;;;;;;40.15;27.67;;;18.70;99.90;;;;;;4920061;29;20031;-81
2023/09/12 05:59:30;;;;;;;34.90;23.73;;;18.80;99.90;;;;;;4939264;29;20028;-84
2023/09/12 06:01:56;;;;;;;37.47;25.65;;;18.80;99.90;;;;;;4942423;29;20066;-82
2023/09/12 06:04:22;;;;;;;37.80;26.45;;;18.80;99.90;;;;;;4941915;29;20020;-82
2023/09/12 06:06:47;;;;;;;35.65;25.73;;;18.80;99.90;;;;;;4925731;28;20037;-82
2023/09/12 06:09:13;;;;;;;30.58;21.92;;;18.80;99.90;;;;;;4937594;29;20140;-83
2023/09/12 06:11:39;;;;;;;28.52;20.75;;;18.80;99.90;;;;;;4937642;29;20039;-82
2023/09/12 06:14:04;;;;;;;29.23;19.55;;;18.90;99.90;;;;;;4925772;28;20403;-84
2023/09/12 06:16:30;;;;;;;25.60;18.15;;;18.90;99.90;;;;;;4941146;29;20058;-85
2023/09/12 06:18:56;;;;;;;25.08;18.58;;;19.00;99.90;;;;;;4931300;28;20437;-82
2023/09/12 06:21:22;;;;;;;26.33;19.15;;;19.00;99.90;;;;;;4925212;29;20036;-82
2023/09/12 06:24:07;;;;;;;28.58;18.63;;;19.00;99.90;;;;;;4939984;29;20489;-82
2023/09/12 06:26:32;;;;;;;25.75;18.23;;;19.00;99.90;;;;;;4940247;29;20383;-82
2023/09/12 06:28:59;;;;;;;22.60;17.33;;;19.10;99.90;;;;;;4936209;29;20039;-82
2023/09/12 06:31:24;;;;;;;23.98;16.88;;;19.10;99.90;;;;;;4941186;28;20066;-83
2023/09/12 06:33:50;;;;;;;27.10;19.00;;;19.10;99.90;;;;;;4944152;29;20055;-83
2023/09/12 06:36:16;;;;;;;24.85;16.77;;;19.20;99.90;;;;;;4945743;29;20023;-85
2023/09/12 06:38:41;;;;;;;24.08;17.95;;;19.10;99.90;;;;;;4947244;29;20443;-85
2023/09/12 06:41:07;;;;;;;25.40;18.35;;;19.10;99.90;;;;;;4926545;28;20089;-84
2023/09/12 06:43:33;;;;;;;23.85;17.40;;;19.20;99.90;;;;;;4944361;29;20054;-85
2023/09/12 06:45:58;;;;;;;26.92;17.45;;;19.20;99.90;;;;;;4937584;29;20038;-84
2023/09/12 06:48:24;;;;;;;23.95;17.33;;;19.20;99.90;;;;;;4946850;29;20495;-82
2023/09/12 06:50:50;;;;;;;23.27;17.10;;;19.20;99.90;;;;;;4939952;29;20040;-82
2023/09/12 06:53:16;;;;;;;26.30;18.85;;;19.30;99.90;;;;;;4937864;29;20066;-87
2023/09/12 06:55:41;;;;;;;24.67;17.92;;;19.30;99.90;;;;;;4929739;28;20114;-84
2023/09/12 06:58:07;;;;;;;24.10;17.95;;;19.30;99.90;;;;;;4945709;29;20031;-81
2023/09/12 07:00:33;;;;;;;25.85;17.35;;;19.30;99.90;;;;;;4941715;29;20027;-83
2023/09/12 07:02:59;;;;;;;23.70;17.00;;;19.30;99.90;;;;;;4943696;28;20400;-84
2023/09/12 07:05:24;;;;;;;24.30;17.52;;;19.30;99.90;;;;;;4946295;29;20024;-86
2023/09/12 07:07:51;;;;;;;22.27;16.50;;;19.30;99.90;;;;;;4943558;29;20042;-83
2023/09/12 07:10:17;;;;;;;21.95;15.93;;;19.30;99.90;;;;;;4939199;29;20038;-85
2023/09/12 07:12:43;;;;;;;23.55;16.85;;;19.40;99.90;;;;;;4927425;29;20385;-82
2023/09/12 07:15:09;;;;;;;22.48;17.00;;;19.40;99.90;;;;;;4947329;29;20095;-85
2023/09/12 07:17:35;;;;;;;22.63;16.42;;;19.40;99.90;;;;;;4937196;29;20031;-83
2023/09/12 07:20:01;;;;;;;23.52;17.20;;;19.40;99.90;;;;;;4927570;28;20391;-83
2023/09/12 07:22:26;;;;;;;23.67;16.98;;;19.50;99.90;;;;;;4944921;28;20043;-85
2023/09/12 07:24:52;;;;;;;22.23;16.33;;;19.50;99.90;;;;;;4917583;29;20114;-84
2023/09/12 07:27:18;;;;;;;24.50;17.88;;;19.50;99.90;;;;;;4930034;29;20114;-84
2023/09/12 07:29:43;;;;;;;25.35;18.27;;;19.50;99.90;;;;;;4938542;29;20027;-84
2023/09/12 07:32:09;;;;;;;26.27;18.75;;;19.50;99.90;;;;;;4927762;29;20075;-85
2023/09/12 07:34:34;;;;;;;26.77;19.38;;;19.60;99.90;;;;;;4929327;29;20042;-85
2023/09/12 07:37:00;;;;;;;27.17;18.63;;;19.50;99.90;;;;;;4943723;29;20042;-85
2023/09/12 07:39:26;;;;;;;27.63;20.30;;;19.60;99.90;;;;;;4927994;29;20472;-86
2023/09/12 07:41:52;;;;;;;24.48;17.75;;;19.60;99.90;;;;;;4929292;28;20038;-83
2023/09/12 07:44:17;;;;;;;26.65;18.67;;;19.70;99.90;;;;;;4944165;28;20074;-86
2023/09/12 07:46:43;;;;;;;26.25;19.52;;;19.70;99.90;;;;;;4944825;29;20102;-83
2023/09/12 07:49:09;;;;;;;25.75;18.45;;;19.80;99.90;;;;;;4946287;29;20110;-84
2023/09/12 07:51:35;;;;;;;27.23;18.92;;;19.80;99.90;;;;;;4944730;29;20127;-83
2023/09/12 07:54:01;;;;;;;28.42;19.77;;;19.90;99.90;;;;;;4942431;29;20028;-85
2023/09/12 07:56:27;;;;;;;28.08;19.67;;;20.00;99.90;;;;;;4938621;29;20027;-85
2023/09/12 07:58:53;;;;;;;28.92;19.95;;;20.00;99.90;;;;;;4930067;29;20100;-84
2023/09/12 08:01:18;;;;;;;27.65;18.23;;;20.00;99.90;;;;;;4945795;29;20038;-86
2023/09/12 08:03:44;;;;;;;26.83;18.30;;;20.00;99.90;;;;;;4942017;29;20027;-82
2023/09/12 08:06:10;;;;;;;36.63;23.67;;;20.10;99.90;;;;;;4944318;29;20092;-82
2023/09/12 08:08:36;;;;;;;29.35;19.70;;;20.10;99.90;;;;;;4942114;28;20027;-83
2023/09/12 08:11:02;;;;;;;30.88;20.75;;;20.20;99.90;;;;;;4941196;29;20035;-84
2023/09/12 08:13:29;;;;;;;29.20;19.60;;;20.20;99.90;;;;;;4910050;29;20061;-83
2023/09/12 08:15:55;;;;;;;27.40;19.67;;;20.20;99.90;;;;;;4937904;29;20042;-83
2023/09/12 08:18:21;;;;;;;32.35;23.85;;;20.30;99.90;;;;;;4937693;28;20031;-85
2023/09/12 08:20:47;;;;;;;33.83;24.48;;;20.30;99.90;;;;;;4933960;29;20035;-82
2023/09/12 08:23:13;;;;;;;31.98;23.27;;;20.20;99.90;;;;;;4942161;29;20042;-83
2023/09/12 08:25:39;;;;;;;28.13;21.13;;;20.40;99.90;;;;;;4943345;29;20164;-83
2023/09/12 08:28:05;;;;;;;30.27;21.23;;;20.70;99.90;;;;;;4926628;29;20499;-81
2023/09/12 08:30:31;;;;;;;28.23;20.98;;;20.90;99.90;;;;;;4944706;29;20079;-82
2023/09/12 08:32:57;;;;;;;28.38;20.85;;;21.10;99.90;;;;;;4944358;29;20487;-83
2023/09/12 08:35:22;;;;;;;33.45;25.15;;;21.00;99.90;;;;;;4935951;29;20073;-82
2023/09/12 08:37:48;;;;;;;31.75;23.75;;;21.20;99.90;;;;;;4942521;29;20434;-83
2023/09/12 08:40:14;;;;;;;33.17;24.15;;;21.30;99.90;;;;;;4935641;29;20031;-81
2023/09/12 08:42:42;;;;;;;37.92;28.02;;;21.30;99.90;;;;;;4942313;28;20035;-81
2023/09/12 08:45:15;;;;;;;34.08;24.95;;;21.10;99.90;;;;;;4925747;29;20036;-83
2023/09/12 08:47:44;;;;;;;27.88;22.15;;;21.00;99.90;;;;;;4941848;29;20024;-83
2023/09/12 08:50:16;;;;;;;29.00;22.08;;;20.90;99.90;;;;;;4944902;29;20443;-83
2023/09/12 08:52:43;;;;;;;30.10;22.13;;;20.90;99.90;;;;;;4930340;29;20122;-82
2023/09/12 08:55:10;;;;;;;27.63;20.73;;;21.30;99.90;;;;;;4942666;29;20035;-84
2023/09/12 08:57:38;;;;;;;30.25;22.00;;;21.80;99.90;;;;;;4943894;29;20396;-80
2023/09/12 09:00:08;;;;;;;36.90;26.63;;;21.50;99.90;;;;;;4942785;28;20023;-81
2023/09/12 09:02:38;;;;;;;36.80;26.65;;;21.30;99.90;;;;;;4944438;29;20047;-80
2023/09/12 09:05:05;;;;;;;37.50;25.40;;;21.60;99.90;;;;;;4935404;29;20047;-82
2023/09/12 09:07:39;;;;;;;29.13;20.60;;;21.30;99.90;;;;;;4928786;29;20055;-81
2023/09/12 09:10:07;;;;;;;27.13;20.80;;;21.10;99.90;;;;;;4944533;28;20078;-80
2023/09/12 09:12:34;;;;;;;26.73;20.42;;;21.10;99.90;;;;;;4929662;29;20430;-83
2023/09/12 09:15:27;;;;;;;21.20;16.52;;;21.70;99.90;;;;;;4944674;28;20027;-81
2023/09/12 09:17:54;;;;;;;33.50;25.10;;;22.20;99.90;;;;;;4917217;28;20031;-81
2023/09/12 09:20:30;;;;;;;32.88;23.95;;;22.00;99.90;;;;;;4943212;29;20496;-81
2023/09/12 09:23:07;;;;;;;31.88;22.70;;;21.60;99.90;;;;;;4926090;29;20078;-80
2023/09/12 09:25:33;;;;;;;29.02;21.20;;;21.30;99.90;;;;;;4942406;29;20464;-81
2023/09/12 09:28:03;;;;;;;27.95;20.23;;;21.10;99.90;;;;;;4944381;29;20032;-83
2023/09/12 09:30:43;;;;;;;25.67;18.42;;;21.10;99.90;;;;;;4943492;29;20077;-87
2023/09/12 09:33:10;;;;;;;25.80;19.98;;;21.50;99.90;;;;;;4940962;29;20168;-80
2023/09/12 09:35:37;;;;;;;19.88;15.32;;;21.70;99.90;;;;;;4941162;29;20042;-81
2023/09/12 09:38:06;;;;;;;28.58;19.30;;;22.00;99.90;;;;;;4942950;29;20122;-83
2023/09/12 09:40:33;;;;;;;29.33;19.67;;;21.90;99.90;;;;;;4936177;29;20431;-81
2023/09/12 09:43:00;;;;;;;25.23;19.27;;;22.30;99.90;;;;;;4927547;28;20105;-81
2023/09/12 09:45:27;;;;;;;21.15;16.63;;;22.70;99.90;;;;;;4926727;29;20031;-80
2023/09/12 09:47:57;;;;;;;25.73;16.85;;;22.70;99.90;;;;;;4941945;29;20027;-82
2023/09/12 09:50:23;;;;;;;16.92;12.32;;;22.40;99.90;;;;;;4942180;29;20526;-82
2023/09/12 09:52:55;;;;;;;23.10;17.63;;;22.70;99.90;;;;;;4942048;29;20083;-79
2023/09/12 09:55:22;;;;;;;26.67;20.33;;;22.10;99.90;;;;;;4943508;29;20035;-87
2023/09/12 09:57:48;;;;;;;23.02;17.20;;;21.90;99.90;;;;;;4923249;29;20049;-82
2023/09/12 10:00:14;;;;;;;18.73;14.27;;;22.10;99.90;;;;;;4942963;28;20031;-81
2023/09/12 10:02:42;;;;;;;17.33;13.55;;;21.90;99.90;;;;;;4942083;29;20023;-80
2023/09/12 10:05:10;;;;;;;23.30;17.08;;;21.90;99.90;;;;;;4928129;29;20046;-81
2023/09/12 10:07:38;;;;;;;23.42;16.38;;;22.30;99.90;;;;;;4942461;29;20471;-81
2023/09/12 10:10:04;;;;;;;19.20;13.85;;;22.50;99.90;;;;;;4998400;28;20522;-83
2023/09/12 10:12:34;;;;;;;19.40;15.77;;;22.60;99.90;;;;;;4942482;29;20134;-81
2023/09/12 10:15:01;;;;;;;15.25;11.57;;;22.70;99.90;;;;;;4912787;29;20046;-82
2023/09/12 10:17:34;;;;;;;10.27;7.38;;;23.10;99.90;;;;;;4940722;29;20035;-81
2023/09/12 10:20:04;;;;;;;11.25;9.38;;;23.40;99.90;;;;;;4943024;28;20032;-81
2023/09/12 10:22:39;;;;;;;;;;;23.00;99.90;;;;;;4931899;29;20412;-81
2023/09/12 10:25:06;;;;;;;8.73;5.53;;;23.10;99.90;;;;;;4944900;29;20009;-80
2023/09/12 10:27:33;;;;;;;7.13;5.50;;;23.20;99.90;;;;;;4938645;29;20032;-88
2023/09/12 10:29:59;;;;;;;14.32;10.15;;;23.60;99.90;;;;;;4932724;29;20031;-83
2023/09/12 10:32:27;;;;;;;13.70;9.80;;;23.40;99.90;;;;;;4928372;29;20054;-81
2023/09/12 10:34:57;;;;;;;12.05;8.75;;;23.70;99.90;;;;;;4923330;29;20114;-84
2023/09/12 10:37:25;;;;;;;14.65;10.07;;;23.50;99.90;;;;;;4943395;29;20027;-81
2023/09/12 10:39:53;;;;;;;13.68;9.98;;;23.50;99.90;;;;;;4914262;29;20043;-82
2023/09/12 10:42:21;;;;;;;12.05;8.77;;;23.50;99.90;;;;;;4942996;28;20051;-81
2023/09/12 10:44:47;;;;;;;9.73;8.45;;;23.60;99.90;;;;;;4932746;29;20035;-85
2023/09/12 10:47:14;;;;;;;7.20;5.57;;;23.60;99.90;;;;;;4943575;29;20031;-82
2023/09/12 10:49:43;;;;;;;9.75;7.47;;;23.90;99.90;;;;;;4940154;29;20027;-81
2023/09/12 10:52:09;;;;;;;8.52;6.97;;;23.80;99.90;;;;;;4946826;29;20039;-82
2023/09/12 10:54:39;;;;;;;12.80;8.52;;;24.10;99.90;;;;;;4927707;29;20101;-81
2023/09/12 10:57:07;;;;;;;9.52;7.07;;;24.10;99.90;;;;;;4944440;29;20024;-83
2023/09/12 10:59:36;;;;;;;7.57;6.47;;;24.20;99.90;;;;;;4932434;29;20035;-85
2023/09/12 11:02:34;;;;;;;9.93;7.15;;;24.60;99.90;;;;;;4927686;28;20109;-82
2023/09/12 11:05:03;;;;;;;9.80;7.65;;;24.40;99.90;;;;;;4947789;29;20028;-82
2023/09/12 11:07:35;;;;;;;6.95;5.32;;;24.00;99.90;;;;;;4927131;29;20494;-80
2023/09/12 11:10:16;;;;;;;8.07;6.60;;;24.00;99.90;;;;;;4944964;29;20028;-84
2023/09/12 11:12:43;;;;;;;14.35;11.75;;;24.10;99.90;;;;;;4942978;29;20046;-81
2023/09/12 11:15:13;;;;;;;10.00;8.25;;;23.90;99.90;;;;;;4942517;29;20039;-81
2023/09/12 11:17:49;;;;;;;9.48;7.10;;;24.00;99.90;;;;;;4925356;28;20031;-81
2023/09/12 11:20:16;;;;;;;9.98;7.45;;;23.80;99.90;;;;;;4944945;29;20086;-80
2023/09/12 11:22:43;;;;;;;8.30;6.28;;;23.50;99.90;;;;;;4945748;29;20039;-81
2023/09/12 11:25:26;;;;;;;8.25;5.75;;;23.30;99.90;;;;;;4929456;29;20039;-84
2023/09/12 11:27:51;;;;;;;8.38;5.75;;;23.30;99.90;;;;;;4929439;29;20051;-80
2023/09/12 11:30:22;;;;;;;8.95;6.43;;;23.50;99.90;;;;;;4943635;28;20101;-80
2023/09/12 11:32:50;;;;;;;7.93;6.15;;;23.70;99.90;;;;;;4927633;29;20085;-82
2023/09/12 11:35:22;;;;;;;11.35;8.50;;;23.70;99.90;;;;;;4944576;29;20032;-80
2023/09/12 11:37:49;;;;;;;14.02;10.23;;;23.60;99.90;;;;;;4929880;29;20030;-82
2023/09/12 11:40:16;;;;;;;14.98;10.25;;;23.90;99.90;;;;;;4946006;29;20451;-83
2023/09/12 11:42:43;;;;;;;10.23;8.70;;;24.20;99.90;;;;;;4926117;28;20043;-83
2023/09/12 11:45:10;;;;;;;11.45;9.63;;;24.40;99.90;;;;;;4926254;29;20085;-81
2023/09/12 11:47:43;;;;;;;11.07;8.93;;;24.30;99.90;;;;;;4944444;28;20036;-80
2023/09/12 11:50:30;;;;;;;10.38;7.50;;;24.00;99.90;;;;;;4938421;29;20050;-84
2023/09/12 11:53:03;;;;;;;10.18;8.05;;;23.70;99.90;;;;;;4943256;29;20126;-81
2023/09/12 11:55:32;;;;;;;9.10;7.53;;;23.60;99.90;;;;;;4928454;29;20035;-82
2023/09/12 11:57:58;;;;;;;7.85;6.32;;;23.50;99.90;;;;;;4930320;29;20038;-79
2023/09/12 12:00:26;;;;;;;8.32;6.50;;;23.50;99.90;;;;;;4926146;29;20035;-83
2023/09/12 12:02:53;;;;;;;11.10;6.75;;;23.50;99.90;;;;;;4939335;29;20426;-80
2023/09/12 12:05:19;;;;;;;8.57;6.97;;;23.60;99.90;;;;;;4929409;29;20042;-85
2023/09/12 12:07:47;;;;;;;6.22;4.40;;;23.50;99.90;;;;;;4930921;28;20031;-81
2023/09/12 12:10:13;;;;;;;4.70;2.92;;;23.50;99.90;;;;;;4924581;28;20336;-82
2023/09/12 12:12:39;;;;;;;3.72;2.97;;;23.80;99.90;;;;;;4934304;29;20097;-81
2023/09/12 12:15:11;;;;;;;4.85;3.50;;;23.90;99.90;;;;;;4943756;29;20027;-82
2023/09/12 12:17:40;;;;;;;5.07;4.57;;;23.80;99.90;;;;;;4923410;28;20051;-83
2023/09/12 12:20:09;;;;;;;5.20;3.72;;;23.60;99.90;;;;;;4941080;29;20478;-89
2023/09/12 12:22:37;;;;;;;3.72;2.47;;;23.80;99.90;;;;;;4943621;29;20035;-83
2023/09/12 12:25:10;;;;;;;3.42;3.10;;;24.40;99.90;;;;;;4927123;29;20074;-85
2023/09/12 12:27:39;;;;;;;5.45;3.95;;;24.80;99.90;;;;;;4940839;29;20107;-81
2023/09/12 12:30:06;;;;;;;;;;;24.90;99.90;;;;;;4943782;29;20023;-83
2023/09/12 12:32:32;;;;;;;4.13;3.20;;;24.80;99.90;;;;;;4942315;28;19926;-81
2023/09/12 12:34:58;;;;;;;4.68;3.15;;;24.60;99.90;;;;;;4944025;29;20028;-83